sensor_id;sensor_type;location;lat;lon;timestamp;pressure;altitude;pressure_sealevel;temperature;humidity
62103;BME280;48077;48.104;11.702;2023-12-20T00:01:51;95522.59;;;3.02;84.01
62103;BME280;48077;48.104;11.702;2023-12-20T00:04:20;95521.00;;;3.08;83.09
62103;BME280;48077;48.104;11.702;2023-12-20T00:06:47;95511.66;;;3.06;83.94
62103;BME280;48077;48.104;11.702;2023-12-20T00:09:15;95515.09;;;3.06;83.47
62103;BME280;48077;48.104;11.702;2023-12-20T00:11:43;95510.25;;;2.88;87.47
62103;BME280;48077;48.104;11.702;2023-12-20T00:14:10;95505.22;;;2.93;87.27
62103;BME280;48077;48.104;11.702;2023-12-20T00:16:38;95499.78;;;2.95;88.29
62103;BME280;48077;48.104;11.702;2023-12-20T00:19:05;95493.69;;;2.94;90.12
62103;BME280;48077;48.104;11.702;2023-12-20T00:21:35;95495.44;;;2.87;88.96
62103;BME280;48077;48.104;11.702;2023-12-20T00:24:04;95486.19;;;2.76;90.60
62103;BME280;48077;48.104;11.702;2023-12-20T00:26:32;95471.00;;;2.78;90.78
62103;BME280;48077;48.104;11.702;2023-12-20T00:28:59;95474.09;;;2.82;90.32
62103;BME280;48077;48.104;11.702;2023-12-20T00:31:27;95471.28;;;2.83;90.30
62103;BME280;48077;48.104;11.702;2023-12-20T00:33:55;95463.19;;;2.85;89.98
62103;BME280;48077;48.104;11.702;2023-12-20T00:36:23;95456.28;;;2.84;89.85
62103;BME280;48077;48.104;11.702;2023-12-20T00:38:52;95458.13;;;2.83;90.21
62103;BME280;48077;48.104;11.702;2023-12-20T00:41:19;95450.91;;;2.92;89.13
62103;BME280;48077;48.104;11.702;2023-12-20T00:43:47;95460.16;;;3.03;91.34
62103;BME280;48077;48.104;11.702;2023-12-20T00:46:15;95462.97;;;3.01;87.53
62103;BME280;48077;48.104;11.702;2023-12-20T00:48:43;95458.09;;;3.41;80.13
62103;BME280;48077;48.104;11.702;2023-12-20T00:51:12;95447.59;;;3.27;83.88
62103;BME280;48077;48.104;11.702;2023-12-20T00:53:39;95440.84;;;3.39;83.97
62103;BME280;48077;48.104;11.702;2023-12-20T00:56:08;95444.03;;;3.34;82.96
62103;BME280;48077;48.104;11.702;2023-12-20T00:58:36;95442.72;;;3.23;83.76
62103;BME280;48077;48.104;11.702;2023-12-20T01:01:04;95442.53;;;3.25;85.29
62103;BME280;48077;48.104;11.702;2023-12-20T01:07:44;95435.69;;;2.88;89.91
62103;BME280;48077;48.104;11.702;2023-12-20T01:10:12;95442.09;;;2.85;91.10
62103;BME280;48077;48.104;11.702;2023-12-20T01:12:39;95434.47;;;2.90;88.05
62103;BME280;48077;48.104;11.702;2023-12-20T01:15:08;95426.13;;;2.87;90.18
62103;BME280;48077;48.104;11.702;2023-12-20T01:17:35;95416.50;;;2.79;91.85
62103;BME280;48077;48.104;11.702;2023-12-20T01:20:03;95412.72;;;2.81;92.04
62103;BME280;48077;48.104;11.702;2023-12-20T01:22:31;95403.44;;;2.71;93.30
62103;BME280;48077;48.104;11.702;2023-12-20T01:25:00;95413.34;;;2.69;95.09
62103;BME280;48077;48.104;11.702;2023-12-20T01:27:29;95410.94;;;2.67;94.05
62103;BME280;48077;48.104;11.702;2023-12-20T01:29:57;95409.44;;;2.64;95.12
62103;BME280;48077;48.104;11.702;2023-12-20T01:32:25;95407.75;;;2.57;96.14
62103;BME280;48077;48.104;11.702;2023-12-20T01:34:52;95406.81;;;2.64;95.72
62103;BME280;48077;48.104;11.702;2023-12-20T01:37:22;95405.59;;;2.60;96.92
62103;BME280;48077;48.104;11.702;2023-12-20T01:39:52;95398.69;;;2.59;94.96
62103;BME280;48077;48.104;11.702;2023-12-20T01:42:21;95399.88;;;2.57;96.18
62103;BME280;48077;48.104;11.702;2023-12-20T01:44:48;95393.59;;;2.58;95.85
62103;BME280;48077;48.104;11.702;2023-12-20T01:47:16;95387.41;;;2.66;93.96
62103;BME280;48077;48.104;11.702;2023-12-20T01:49:44;95391.66;;;2.67;93.73
62103;BME280;48077;48.104;11.702;2023-12-20T01:52:12;95389.84;;;2.67;94.24
62103;BME280;48077;48.104;11.702;2023-12-20T01:54:40;95376.06;;;2.65;95.98
62103;BME280;48077;48.104;11.702;2023-12-20T01:57:09;95369.31;;;2.77;93.59
62103;BME280;48077;48.104;11.702;2023-12-20T01:59:39;95362.53;;;2.90;89.59
62103;BME280;48077;48.104;11.702;2023-12-20T02:02:07;95371.91;;;3.20;87.19
62103;BME280;48077;48.104;11.702;2023-12-20T02:04:35;95362.41;;;3.19;88.58
62103;BME280;48077;48.104;11.702;2023-12-20T02:07:03;95359.94;;;3.18;88.61
62103;BME280;48077;48.104;11.702;2023-12-20T02:09:31;95356.31;;;3.19;86.70
62103;BME280;48077;48.104;11.702;2023-12-20T02:11:59;95339.34;;;3.28;87.92
62103;BME280;48077;48.104;11.702;2023-12-20T02:14:27;95335.03;;;3.49;84.52
62103;BME280;48077;48.104;11.702;2023-12-20T02:16:56;95342.16;;;3.48;84.69
62103;BME280;48077;48.104;11.702;2023-12-20T02:19:24;95326.22;;;3.63;83.45
62103;BME280;48077;48.104;11.702;2023-12-20T02:22:05;95320.34;;;3.68;82.38
62103;BME280;48077;48.104;11.702;2023-12-20T02:24:33;95319.16;;;3.70;82.61
62103;BME280;48077;48.104;11.702;2023-12-20T02:27:01;95320.00;;;3.77;82.73
62103;BME280;48077;48.104;11.702;2023-12-20T02:29:29;95313.59;;;4.00;79.28
62103;BME280;48077;48.104;11.702;2023-12-20T02:31:57;95325.06;;;4.14;78.40
62103;BME280;48077;48.104;11.702;2023-12-20T02:34:25;95320.84;;;4.26;78.10
62103;BME280;48077;48.104;11.702;2023-12-20T02:36:52;95318.25;;;4.39;77.07
62103;BME280;48077;48.104;11.702;2023-12-20T02:39:22;95323.75;;;4.44;76.56
62103;BME280;48077;48.104;11.702;2023-12-20T02:41:50;95319.53;;;4.57;75.00
62103;BME280;48077;48.104;11.702;2023-12-20T02:44:17;95311.19;;;4.53;74.47
62103;BME280;48077;48.104;11.702;2023-12-20T02:46:45;95308.16;;;4.56;73.68
62103;BME280;48077;48.104;11.702;2023-12-20T02:49:13;95302.88;;;4.63;75.40
62103;BME280;48077;48.104;11.702;2023-12-20T02:51:40;95308.16;;;4.56;73.31
62103;BME280;48077;48.104;11.702;2023-12-20T02:54:08;95308.97;;;4.57;74.59
62103;BME280;48077;48.104;11.702;2023-12-20T02:56:37;95298.00;;;4.66;73.92
62103;BME280;48077;48.104;11.702;2023-12-20T02:59:05;95302.88;;;4.63;74.52
62103;BME280;48077;48.104;11.702;2023-12-20T03:01:35;95294.13;;;4.56;74.62
62103;BME280;48077;48.104;11.702;2023-12-20T03:04:03;95306.94;;;4.65;76.13
62103;BME280;48077;48.104;11.702;2023-12-20T03:06:30;95312.44;;;4.71;74.90
62103;BME280;48077;48.104;11.702;2023-12-20T03:08:58;95302.09;;;4.76;73.86
62103;BME280;48077;48.104;11.702;2023-12-20T03:11:26;95301.66;;;4.65;75.87
62103;BME280;48077;48.104;11.702;2023-12-20T03:13:55;95304.50;;;4.57;77.08
62103;BME280;48077;48.104;11.702;2023-12-20T03:16:23;95303.88;;;4.49;77.75
62103;BME280;48077;48.104;11.702;2023-12-20T03:18:51;95313.63;;;4.48;78.01
62103;BME280;48077;48.104;11.702;2023-12-20T03:21:19;95306.06;;;4.38;78.70
62103;BME280;48077;48.104;11.702;2023-12-20T03:23:46;95299.53;;;4.34;79.77
62103;BME280;48077;48.104;11.702;2023-12-20T03:26:14;95299.13;;;4.31;81.08
62103;BME280;48077;48.104;11.702;2023-12-20T03:28:41;95304.38;;;4.24;81.59
62103;BME280;48077;48.104;11.702;2023-12-20T03:31:10;95304.38;;;4.17;81.92
62103;BME280;48077;48.104;11.702;2023-12-20T03:33:38;95312.44;;;4.09;84.29
62103;BME280;48077;48.104;11.702;2023-12-20T03:36:07;95316.50;;;4.05;84.95
62103;BME280;48077;48.104;11.702;2023-12-20T03:38:34;95315.88;;;4.03;86.33
62103;BME280;48077;48.104;11.702;2023-12-20T03:41:02;95306.06;;;3.90;88.47
62103;BME280;48077;48.104;11.702;2023-12-20T03:43:30;95317.84;;;3.88;89.38
62103;BME280;48077;48.104;11.702;2023-12-20T03:45:57;95322.28;;;3.87;91.34
62103;BME280;48077;48.104;11.702;2023-12-20T03:48:27;95325.50;;;3.82;93.17
62103;BME280;48077;48.104;11.702;2023-12-20T03:50:56;95331.56;;;3.76;94.57
62103;BME280;48077;48.104;11.702;2023-12-20T03:53:24;95343.50;;;3.72;95.37
62103;BME280;48077;48.104;11.702;2023-12-20T03:55:52;95350.19;;;3.68;96.11
62103;BME280;48077;48.104;11.702;2023-12-20T03:58:19;95348.94;;;3.64;97.02
62103;BME280;48077;48.104;11.702;2023-12-20T04:00:47;95358.28;;;3.67;97.88
62103;BME280;48077;48.104;11.702;2023-12-20T04:03:15;95354.59;;;3.61;97.79
62103;BME280;48077;48.104;11.702;2023-12-20T04:06:06;95355.63;;;3.67;97.87
62103;BME280;48077;48.104;11.702;2023-12-20T04:08:35;95364.91;;;3.84;99.75
62103;BME280;48077;48.104;11.702;2023-12-20T04:11:02;95363.41;;;4.10;100.00
62103;BME280;48077;48.104;11.702;2023-12-20T04:13:30;95354.13;;;4.27;100.00
62103;BME280;48077;48.104;11.702;2023-12-20T04:15:58;95358.84;;;4.32;100.00
62103;BME280;48077;48.104;11.702;2023-12-20T04:18:26;95357.31;;;4.51;100.00
62103;BME280;48077;48.104;11.702;2023-12-20T04:20:54;95366.91;;;4.65;100.00
62103;BME280;48077;48.104;11.702;2023-12-20T04:23:23;95361.38;;;4.60;100.00
62103;BME280;48077;48.104;11.702;2023-12-20T04:25:51;95360.41;;;4.68;100.00
62103;BME280;48077;48.104;11.702;2023-12-20T04:28:19;95363.25;;;4.73;100.00
62103;BME280;48077;48.104;11.702;2023-12-20T04:30:46;95353.91;;;4.70;100.00
62103;BME280;48077;48.104;11.702;2023-12-20T04:33:14;95347.38;;;4.66;100.00
62103;BME280;48077;48.104;11.702;2023-12-20T04:35:41;95342.88;;;4.60;100.00
62103;BME280;48077;48.104;11.702;2023-12-20T04:38:12;95351.78;;;4.45;100.00
62103;BME280;48077;48.104;11.702;2023-12-20T04:40:41;95352.22;;;4.49;100.00
62103;BME280;48077;48.104;11.702;2023-12-20T04:43:09;95342.69;;;4.55;100.00
62103;BME280;48077;48.104;11.702;2023-12-20T04:45:36;95357.13;;;4.52;100.00
62103;BME280;48077;48.104;11.702;2023-12-20T04:48:04;95352.63;;;4.46;100.00
62103;BME280;48077;48.104;11.702;2023-12-20T04:50:32;95361.94;;;4.42;100.00
62103;BME280;48077;48.104;11.702;2023-12-20T04:53:01;95360.53;;;4.46;100.00
62103;BME280;48077;48.104;11.702;2023-12-20T04:55:28;95371.72;;;4.48;100.00
62103;BME280;48077;48.104;11.702;2023-12-20T04:57:57;95366.00;;;4.44;100.00
62103;BME280;48077;48.104;11.702;2023-12-20T05:00:25;95378.78;;;4.41;100.00
62103;BME280;48077;48.104;11.702;2023-12-20T05:02:53;95382.03;;;4.36;100.00
62103;BME280;48077;48.104;11.702;2023-12-20T05:05:21;95373.69;;;4.39;100.00
62103;BME280;48077;48.104;11.702;2023-12-20T05:07:48;95380.44;;;4.42;100.00
62103;BME280;48077;48.104;11.702;2023-12-20T05:10:16;95389.34;;;4.41;100.00
62103;BME280;48077;48.104;11.702;2023-12-20T05:12:44;95396.84;;;4.37;100.00
62103;BME280;48077;48.104;11.702;2023-12-20T05:15:13;95401.72;;;4.34;100.00
62103;BME280;48077;48.104;11.702;2023-12-20T05:17:41;95400.47;;;4.30;100.00
62103;BME280;48077;48.104;11.702;2023-12-20T05:20:09;95402.25;;;4.22;100.00
62103;BME280;48077;48.104;11.702;2023-12-20T05:22:37;95405.91;;;4.15;100.00
62103;BME280;48077;48.104;11.702;2023-12-20T05:25:05;95409.09;;;4.10;100.00
62103;BME280;48077;48.104;11.702;2023-12-20T05:27:33;95407.44;;;4.02;100.00
62103;BME280;48077;48.104;11.702;2023-12-20T05:30:00;95410.84;;;3.96;100.00
62103;BME280;48077;48.104;11.702;2023-12-20T05:32:29;95419.91;;;3.87;100.00
62103;BME280;48077;48.104;11.702;2023-12-20T05:34:57;95421.56;;;3.88;100.00
62103;BME280;48077;48.104;11.702;2023-12-20T05:37:25;95426.22;;;3.86;100.00
62103;BME280;48077;48.104;11.702;2023-12-20T05:39:53;95430.41;;;3.80;100.00
62103;BME280;48077;48.104;11.702;2023-12-20T05:42:20;95433.06;;;3.80;100.00
62103;BME280;48077;48.104;11.702;2023-12-20T05:44:48;95434.25;;;3.78;100.00
62103;BME280;48077;48.104;11.702;2023-12-20T05:47:20;95431.13;;;3.68;100.00
62103;BME280;48077;48.104;11.702;2023-12-20T05:49:50;95420.69;;;3.53;100.00
62103;BME280;48077;48.104;11.702;2023-12-20T05:52:17;95442.44;;;3.61;100.00
62103;BME280;48077;48.104;11.702;2023-12-20T05:54:45;95451.13;;;3.55;100.00
62103;BME280;48077;48.104;11.702;2023-12-20T05:57:13;95447.03;;;3.53;100.00
62103;BME280;48077;48.104;11.702;2023-12-20T05:59:40;95440.13;;;3.52;100.00
62103;BME280;48077;48.104;11.702;2023-12-20T06:02:08;95455.63;;;3.61;100.00
62103;BME280;48077;48.104;11.702;2023-12-20T06:04:35;95454.50;;;3.49;100.00
62103;BME280;48077;48.104;11.702;2023-12-20T06:07:04;95452.69;;;3.50;100.00
62103;BME280;48077;48.104;11.702;2023-12-20T06:09:32;95466.22;;;3.40;100.00
62103;BME280;48077;48.104;11.702;2023-12-20T06:12:00;95470.63;;;3.39;100.00
62103;BME280;48077;48.104;11.702;2023-12-20T06:14:27;95466.38;;;3.38;100.00
62103;BME280;48077;48.104;11.702;2023-12-20T06:16:57;95465.94;;;3.35;100.00
62103;BME280;48077;48.104;11.702;2023-12-20T06:19:25;95469.59;;;3.34;100.00
62103;BME280;48077;48.104;11.702;2023-12-20T06:21:52;95475.63;;;3.28;100.00
62103;BME280;48077;48.104;11.702;2023-12-20T06:24:21;95479.00;;;3.21;100.00
62103;BME280;48077;48.104;11.702;2023-12-20T06:26:49;95486.28;;;3.19;100.00
62103;BME280;48077;48.104;11.702;2023-12-20T06:29:16;95488.28;;;3.17;100.00
62103;BME280;48077;48.104;11.702;2023-12-20T06:31:44;95484.38;;;3.13;100.00
62103;BME280;48077;48.104;11.702;2023-12-20T06:34:12;95483.31;;;3.08;100.00
62103;BME280;48077;48.104;11.702;2023-12-20T06:36:39;95493.22;;;3.06;100.00
62103;BME280;48077;48.104;11.702;2023-12-20T06:39:07;95497.78;;;2.97;100.00
62103;BME280;48077;48.104;11.702;2023-12-20T06:41:36;95498.16;;;2.94;100.00
62103;BME280;48077;48.104;11.702;2023-12-20T06:44:04;95496.69;;;2.91;100.00
62103;BME280;48077;48.104;11.702;2023-12-20T06:46:32;95506.16;;;2.86;100.00
62103;BME280;48077;48.104;11.702;2023-12-20T06:49:00;95509.63;;;2.86;100.00
62103;BME280;48077;48.104;11.702;2023-12-20T06:51:28;95517.44;;;2.79;100.00
62103;BME280;48077;48.104;11.702;2023-12-20T06:53:57;95523.22;;;2.75;100.00
62103;BME280;48077;48.104;11.702;2023-12-20T06:56:25;95521.06;;;2.78;100.00
62103;BME280;48077;48.104;11.702;2023-12-20T06:58:54;95529.88;;;2.71;100.00
62103;BME280;48077;48.104;11.702;2023-12-20T07:01:21;95533.88;;;2.67;100.00
62103;BME280;48077;48.104;11.702;2023-12-20T07:03:50;95532.88;;;2.68;100.00
62103;BME280;48077;48.104;11.702;2023-12-20T07:06:17;95540.88;;;2.59;100.00
62103;BME280;48077;48.104;11.702;2023-12-20T07:08:45;95538.16;;;2.68;100.00
62103;BME280;48077;48.104;11.702;2023-12-20T07:11:13;95542.69;;;2.59;100.00
62103;BME280;48077;48.104;11.702;2023-12-20T07:13:40;95543.41;;;2.68;100.00
62103;BME280;48077;48.104;11.702;2023-12-20T07:16:09;95548.78;;;2.59;100.00
62103;BME280;48077;48.104;11.702;2023-12-20T07:18:37;95552.75;;;2.55;100.00
62103;BME280;48077;48.104;11.702;2023-12-20T07:21:05;95556.03;;;2.57;100.00
62103;BME280;48077;48.104;11.702;2023-12-20T07:23:34;95558.56;;;2.51;100.00
62103;BME280;48077;48.104;11.702;2023-12-20T07:26:02;95570.94;;;2.50;100.00
62103;BME280;48077;48.104;11.702;2023-12-20T07:28:30;95568.66;;;2.47;100.00
62103;BME280;48077;48.104;11.702;2023-12-20T07:30:58;95570.56;;;2.53;100.00
62103;BME280;48077;48.104;11.702;2023-12-20T07:33:27;95579.00;;;2.49;100.00
62103;BME280;48077;48.104;11.702;2023-12-20T07:35:59;95581.47;;;2.50;100.00
62103;BME280;48077;48.104;11.702;2023-12-20T07:38:27;95579.97;;;2.48;100.00
62103;BME280;48077;48.104;11.702;2023-12-20T07:40:55;95573.91;;;2.47;100.00
62103;BME280;48077;48.104;11.702;2023-12-20T07:43:22;95574.53;;;2.49;100.00
62103;BME280;48077;48.104;11.702;2023-12-20T07:45:50;95577.56;;;2.46;100.00
62103;BME280;48077;48.104;11.702;2023-12-20T07:48:17;95574.00;;;2.54;100.00
62103;BME280;48077;48.104;11.702;2023-12-20T07:50:46;95571.66;;;2.59;100.00
62103;BME280;48077;48.104;11.702;2023-12-20T07:53:14;95577.47;;;2.54;100.00
62103;BME280;48077;48.104;11.702;2023-12-20T07:55:42;95566.56;;;2.57;100.00
62103;BME280;48077;48.104;11.702;2023-12-20T07:58:09;95577.47;;;2.54;100.00
62103;BME280;48077;48.104;11.702;2023-12-20T08:00:37;95582.38;;;2.57;100.00
62103;BME280;48077;48.104;11.702;2023-12-20T08:03:05;95571.66;;;2.59;100.00
62103;BME280;48077;48.104;11.702;2023-12-20T08:05:33;95579.66;;;2.66;100.00
62103;BME280;48077;48.104;11.702;2023-12-20T08:08:03;95576.94;;;2.59;100.00
62103;BME280;48077;48.104;11.702;2023-12-20T08:10:30;95588.53;;;2.64;100.00
62103;BME280;48077;48.104;11.702;2023-12-20T08:12:58;95573.81;;;2.55;100.00
62103;BME280;48077;48.104;11.702;2023-12-20T08:15:26;95592.91;;;2.57;100.00
62103;BME280;48077;48.104;11.702;2023-12-20T08:17:53;95585.91;;;2.64;100.00
62103;BME280;48077;48.104;11.702;2023-12-20T08:20:21;95586.19;;;2.70;100.00
62103;BME280;48077;48.104;11.702;2023-12-20T08:23:03;95593.63;;;2.66;100.00
62103;BME280;48077;48.104;11.702;2023-12-20T08:25:31;95589.38;;;2.65;100.00
62103;BME280;48077;48.104;11.702;2023-12-20T08:27:59;95601.34;;;2.68;100.00
62103;BME280;48077;48.104;11.702;2023-12-20T08:30:26;95593.28;;;2.69;100.00
62103;BME280;48077;48.104;11.702;2023-12-20T08:32:55;95595.72;;;2.71;100.00
62103;BME280;48077;48.104;11.702;2023-12-20T08:35:22;95606.44;;;2.69;100.00
62103;BME280;48077;48.104;11.702;2023-12-20T08:37:50;95609.81;;;2.63;100.00
62103;BME280;48077;48.104;11.702;2023-12-20T08:40:19;95605.16;;;2.65;100.00
62103;BME280;48077;48.104;11.702;2023-12-20T08:42:47;95605.88;;;2.59;100.00
62103;BME280;48077;48.104;11.702;2023-12-20T08:45:15;95606.34;;;2.62;100.00
62103;BME280;48077;48.104;11.702;2023-12-20T08:47:42;95607.16;;;2.63;100.00
62103;BME280;48077;48.104;11.702;2023-12-20T08:50:12;95600.44;;;2.60;100.00
62103;BME280;48077;48.104;11.702;2023-12-20T08:52:40;95610.59;;;2.63;100.00
62103;BME280;48077;48.104;11.702;2023-12-20T08:55:08;95602.72;;;2.63;100.00
62103;BME280;48077;48.104;11.702;2023-12-20T08:57:38;95614.34;;;2.69;100.00
62103;BME280;48077;48.104;11.702;2023-12-20T09:00:07;95615.00;;;2.71;100.00
62103;BME280;48077;48.104;11.702;2023-12-20T09:02:35;95611.41;;;2.64;100.00
62103;BME280;48077;48.104;11.702;2023-12-20T09:05:04;95604.31;;;2.64;100.00
62103;BME280;48077;48.104;11.702;2023-12-20T09:07:32;95615.34;;;2.68;100.00
62103;BME280;48077;48.104;11.702;2023-12-20T09:09:59;95610.44;;;2.65;100.00
62103;BME280;48077;48.104;11.702;2023-12-20T09:12:27;95602.38;;;2.81;100.00
62103;BME280;48077;48.104;11.702;2023-12-20T09:14:56;95608.06;;;2.85;100.00
62103;BME280;48077;48.104;11.702;2023-12-20T09:17:24;95602.53;;;2.80;100.00
62103;BME280;48077;48.104;11.702;2023-12-20T09:19:52;95603.66;;;2.86;100.00
62103;BME280;48077;48.104;11.702;2023-12-20T09:22:20;95601.81;;;2.86;100.00
62103;BME280;48077;48.104;11.702;2023-12-20T09:24:48;95604.34;;;2.94;100.00
62103;BME280;48077;48.104;11.702;2023-12-20T09:27:16;95611.16;;;2.89;100.00
62103;BME280;48077;48.104;11.702;2023-12-20T09:29:43;95610.53;;;3.01;100.00
62103;BME280;48077;48.104;11.702;2023-12-20T09:32:12;95613.00;;;2.88;100.00
62103;BME280;48077;48.104;11.702;2023-12-20T09:34:40;95613.47;;;2.92;100.00
62103;BME280;48077;48.104;11.702;2023-12-20T09:37:08;95621.53;;;2.90;100.00
62103;BME280;48077;48.104;11.702;2023-12-20T09:39:36;95617.34;;;2.96;100.00
62103;BME280;48077;48.104;11.702;2023-12-20T09:42:04;95608.69;;;3.02;100.00
62103;BME280;48077;48.104;11.702;2023-12-20T09:44:33;95597.72;;;2.98;100.00
62103;BME280;48077;48.104;11.702;2023-12-20T09:47:03;95605.63;;;2.98;100.00
62103;BME280;48077;48.104;11.702;2023-12-20T09:49:32;95611.53;;;3.00;100.00
62103;BME280;48077;48.104;11.702;2023-12-20T09:52:01;95596.06;;;2.97;100.00
62103;BME280;48077;48.104;11.702;2023-12-20T09:54:29;95606.28;;;3.00;100.00
62103;BME280;48077;48.104;11.702;2023-12-20T09:56:56;95591.63;;;2.98;100.00
62103;BME280;48077;48.104;11.702;2023-12-20T09:59:24;95597.91;;;2.97;100.00
62103;BME280;48077;48.104;11.702;2023-12-20T10:01:54;95596.53;;;3.01;100.00
62103;BME280;48077;48.104;11.702;2023-12-20T10:04:24;95601.00;;;3.00;100.00
62103;BME280;48077;48.104;11.702;2023-12-20T10:07:01;95588.00;;;2.99;100.00
62103;BME280;48077;48.104;11.702;2023-12-20T10:09:33;95586.25;;;3.06;100.00
62103;BME280;48077;48.104;11.702;2023-12-20T10:12:01;95573.19;;;3.13;100.00
62103;BME280;48077;48.104;11.702;2023-12-20T10:14:28;95583.25;;;3.09;100.00
62103;BME280;48077;48.104;11.702;2023-12-20T10:17:02;95586.34;;;3.13;100.00
62103;BME280;48077;48.104;11.702;2023-12-20T10:19:30;95570.16;;;3.16;100.00
62103;BME280;48077;48.104;11.702;2023-12-20T10:22:00;95579.22;;;3.28;100.00
62103;BME280;48077;48.104;11.702;2023-12-20T10:24:28;95582.69;;;3.29;100.00
62103;BME280;48077;48.104;11.702;2023-12-20T10:27:03;95573.84;;;3.36;100.00
62103;BME280;48077;48.104;11.702;2023-12-20T10:29:32;95566.44;;;3.25;100.00
62103;BME280;48077;48.104;11.702;2023-12-20T10:32:23;95581.13;;;3.34;100.00
62103;BME280;48077;48.104;11.702;2023-12-20T10:34:51;95573.03;;;3.36;100.00
62103;BME280;48077;48.104;11.702;2023-12-20T10:37:21;95543.25;;;3.20;100.00
62103;BME280;48077;48.104;11.702;2023-12-20T10:39:50;95570.38;;;3.51;100.00
62103;BME280;48077;48.104;11.702;2023-12-20T10:42:20;95567.66;;;3.44;100.00
62103;BME280;48077;48.104;11.702;2023-12-20T10:44:49;95566.19;;;3.41;100.00
62103;BME280;48077;48.104;11.702;2023-12-20T10:47:18;95568.09;;;3.48;100.00
62103;BME280;48077;48.104;11.702;2023-12-20T10:49:46;95568.28;;;3.46;100.00
62103;BME280;48077;48.104;11.702;2023-12-20T10:52:16;95564.47;;;3.49;100.00
62103;BME280;48077;48.104;11.702;2023-12-20T10:54:45;95549.00;;;3.45;100.00
62103;BME280;48077;48.104;11.702;2023-12-20T10:57:13;95556.38;;;3.50;100.00
62103;BME280;48077;48.104;11.702;2023-12-20T10:59:45;95565.09;;;3.51;100.00
62103;BME280;48077;48.104;11.702;2023-12-20T11:02:16;95553.63;;;3.58;100.00
62103;BME280;48077;48.104;11.702;2023-12-20T11:04:49;95552.72;;;3.51;100.00
62103;BME280;48077;48.104;11.702;2023-12-20T11:07:22;95555.00;;;3.54;100.00
62103;BME280;48077;48.104;11.702;2023-12-20T11:09:58;95552.84;;;3.64;100.00
62103;BME280;48077;48.104;11.702;2023-12-20T11:12:35;95554.31;;;3.67;100.00
62103;BME280;48077;48.104;11.702;2023-12-20T11:15:06;95566.88;;;3.65;100.00
62103;BME280;48077;48.104;11.702;2023-12-20T11:17:34;95555.22;;;3.59;100.00
62103;BME280;48077;48.104;11.702;2023-12-20T11:20:07;95546.41;;;3.67;100.00
62103;BME280;48077;48.104;11.702;2023-12-20T11:22:37;95560.97;;;3.63;100.00
62103;BME280;48077;48.104;11.702;2023-12-20T11:25:11;95540.72;;;3.49;100.00
62103;BME280;48077;48.104;11.702;2023-12-20T11:27:41;95534.13;;;3.59;100.00
62103;BME280;48077;48.104;11.702;2023-12-20T11:30:14;95549.84;;;3.68;100.00
62103;BME280;48077;48.104;11.702;2023-12-20T11:32:41;95553.03;;;3.63;100.00
62103;BME280;48077;48.104;11.702;2023-12-20T11:35:19;95543.06;;;3.58;100.00
62103;BME280;48077;48.104;11.702;2023-12-20T11:37:47;95531.56;;;3.66;100.00
62103;BME280;48077;48.104;11.702;2023-12-20T11:40:18;95534.00;;;3.68;100.00
62103;BME280;48077;48.104;11.702;2023-12-20T11:42:50;95539.09;;;3.69;100.00
62103;BME280;48077;48.104;11.702;2023-12-20T11:45:21;95536.47;;;3.69;100.00
62103;BME280;48077;48.104;11.702;2023-12-20T11:47:54;95540.50;;;3.65;100.00
62103;BME280;48077;48.104;11.702;2023-12-20T11:50:24;95532.06;;;3.76;100.00
62103;BME280;48077;48.104;11.702;2023-12-20T11:52:53;95530.63;;;3.74;100.00
62103;BME280;48077;48.104;11.702;2023-12-20T11:55:23;95528.44;;;3.77;100.00
62103;BME280;48077;48.104;11.702;2023-12-20T11:57:51;95530.84;;;3.79;100.00
62103;BME280;48077;48.104;11.702;2023-12-20T12:00:19;95527.06;;;3.81;100.00
62103;BME280;48077;48.104;11.702;2023-12-20T12:02:57;95526.91;;;3.90;100.00
62103;BME280;48077;48.104;11.702;2023-12-20T12:05:25;95524.59;;;3.80;100.00
62103;BME280;48077;48.104;11.702;2023-12-20T12:07:53;95527.06;;;3.81;100.00
62103;BME280;48077;48.104;11.702;2023-12-20T12:10:22;95522.63;;;3.89;100.00
62103;BME280;48077;48.104;11.702;2023-12-20T12:12:50;95520.44;;;3.92;100.00
62103;BME280;48077;48.104;11.702;2023-12-20T12:15:18;95522.69;;;3.95;100.00
62103;BME280;48077;48.104;11.702;2023-12-20T12:17:52;95518.16;;;3.89;100.00
62103;BME280;48077;48.104;11.702;2023-12-20T12:20:20;95523.84;;;3.86;100.00
62103;BME280;48077;48.104;11.702;2023-12-20T12:22:57;95511.72;;;3.92;100.00
62103;BME280;48077;48.104;11.702;2023-12-20T12:25:26;95506.56;;;3.83;100.00
62103;BME280;48077;48.104;11.702;2023-12-20T12:27:55;95507.56;;;3.82;100.00
62103;BME280;48077;48.104;11.702;2023-12-20T12:30:23;95509.84;;;3.85;100.00
62103;BME280;48077;48.104;11.702;2023-12-20T12:32:55;95498.88;;;3.89;100.00
62103;BME280;48077;48.104;11.702;2023-12-20T12:35:24;95495.47;;;3.95;100.00
62103;BME280;48077;48.104;11.702;2023-12-20T12:37:51;95484.22;;;3.79;100.00
62103;BME280;48077;48.104;11.702;2023-12-20T12:40:19;95496.78;;;3.77;100.00
62103;BME280;48077;48.104;11.702;2023-12-20T12:42:48;95499.59;;;3.76;100.00
62103;BME280;48077;48.104;11.702;2023-12-20T12:45:16;95490.59;;;3.70;100.00
62103;BME280;48077;48.104;11.702;2023-12-20T12:47:45;95495.19;;;3.83;100.00
62103;BME280;48077;48.104;11.702;2023-12-20T12:50:13;95489.41;;;3.73;100.00
62103;BME280;48077;48.104;11.702;2023-12-20T12:52:41;95490.56;;;3.63;100.00
62103;BME280;48077;48.104;11.702;2023-12-20T12:55:09;95488.16;;;3.69;100.00
62103;BME280;48077;48.104;11.702;2023-12-20T12:57:36;95492.00;;;3.66;100.00
62103;BME280;48077;48.104;11.702;2023-12-20T13:00:06;95490.38;;;3.65;100.00
62103;BME280;48077;48.104;11.702;2023-12-20T13:02:35;95481.56;;;3.58;100.00
62103;BME280;48077;48.104;11.702;2023-12-20T13:05:05;95485.22;;;3.57;100.00